sensor_id;sensor_type;location;lat;lon;timestamp;pressure;altitude;pressure_sealevel;temperature;humidity
33845;BME280;20145;43.118;25.694;2023-04-30T00:02:09;99241.59;;;10.46;80.10
33845;BME280;20145;43.118;25.694;2023-04-30T00:04:35;99241.72;;;10.37;79.66
33845;BME280;20145;43.118;25.694;2023-04-30T00:07:01;99237.50;;;10.30;79.65
33845;BME280;20145;43.118;25.694;2023-04-30T00:09:27;99241.84;;;10.25;80.21
33845;BME280;20145;43.118;25.694;2023-04-30T00:11:52;99230.78;;;10.18;79.79
33845;BME280;20145;43.118;25.694;2023-04-30T00:14:18;99219.72;;;10.09;79.73
33845;BME280;20145;43.118;25.694;2023-04-30T00:16:43;99234.38;;;10.07;79.61
33845;BME280;20145;43.118;25.694;2023-04-30T00:19:09;99235.31;;;9.99;79.61
33845;BME280;20145;43.118;25.694;2023-04-30T00:21:34;99236.28;;;9.89;80.47
33845;BME280;20145;43.118;25.694;2023-04-30T00:24:00;99225.22;;;9.84;81.79
33845;BME280;20145;43.118;25.694;2023-04-30T00:26:26;99227.91;;;9.73;81.81
33845;BME280;20145;43.118;25.694;2023-04-30T00:28:51;99227.91;;;9.73;82.41
33845;BME280;20145;43.118;25.694;2023-04-30T00:31:17;99230.56;;;9.64;82.60
33845;BME280;20145;43.118;25.694;2023-04-30T00:33:44;99208.53;;;9.40;82.05
33845;BME280;20145;43.118;25.694;2023-04-30T00:36:09;99206.84;;;9.36;82.42
33845;BME280;20145;43.118;25.694;2023-04-30T00:38:35;99226.56;;;9.38;82.83
33845;BME280;20145;43.118;25.694;2023-04-30T00:41:00;99229.16;;;9.37;84.00
33845;BME280;20145;43.118;25.694;2023-04-30T00:43:26;99224.06;;;9.31;84.49
33845;BME280;20145;43.118;25.694;2023-04-30T00:45:52;99216.41;;;9.25;84.07
33845;BME280;20145;43.118;25.694;2023-04-30T00:48:18;99223.31;;;9.20;84.23
33845;BME280;20145;43.118;25.694;2023-04-30T00:50:43;99214.81;;;9.14;85.23
33845;BME280;20145;43.118;25.694;2023-04-30T00:53:10;99209.72;;;9.05;84.99
33845;BME280;20145;43.118;25.694;2023-04-30T00:55:37;99216.66;;;8.99;85.99
33845;BME280;20145;43.118;25.694;2023-04-30T00:58:04;99206.34;;;8.97;86.21
33845;BME280;20145;43.118;25.694;2023-04-30T01:00:31;99196.13;;;8.89;85.50
33845;BME280;20145;43.118;25.694;2023-04-30T01:02:56;99201.34;;;8.83;86.31
33845;BME280;20145;43.118;25.694;2023-04-30T01:05:22;99199.66;;;8.79;86.15
33845;BME280;20145;43.118;25.694;2023-04-30T01:07:48;99185.19;;;8.64;86.57
33845;BME280;20145;43.118;25.694;2023-04-30T01:10:15;99200.59;;;8.70;86.37
33845;BME280;20145;43.118;25.694;2023-04-30T01:13:05;99202.41;;;8.58;85.86
33845;BME280;20145;43.118;25.694;2023-04-30T01:15:58;99170.91;;;8.23;85.74
33845;BME280;20145;43.118;25.694;2023-04-30T01:18:28;99206.84;;;8.30;86.68
33845;BME280;20145;43.118;25.694;2023-04-30T01:21:01;99191.50;;;8.14;87.54
33845;BME280;20145;43.118;25.694;2023-04-30T01:28:56;99204.38;;;8.11;88.01
33845;BME280;20145;43.118;25.694;2023-04-30T01:31:23;99199.25;;;8.10;88.44
33845;BME280;20145;43.118;25.694;2023-04-30T01:33:48;99204.38;;;8.08;87.36
33845;BME280;20145;43.118;25.694;2023-04-30T01:42:09;99205.38;;;7.79;85.81
33845;BME280;20145;43.118;25.694;2023-04-30T01:47:38;99197.75;;;7.53;86.41
33845;BME280;20145;43.118;25.694;2023-04-30T01:52:58;99190.97;;;7.43;86.91
33845;BME280;20145;43.118;25.694;2023-04-30T01:55:50;99194.41;;;7.41;87.16
33845;BME280;20145;43.118;25.694;2023-04-30T01:58:19;99192.72;;;7.35;87.08
33845;BME280;20145;43.118;25.694;2023-04-30T02:00:47;99202.13;;;7.27;86.97
33845;BME280;20145;43.118;25.694;2023-04-30T02:03:20;99194.44;;;7.19;87.45
33845;BME280;20145;43.118;25.694;2023-04-30T02:05:46;99196.16;;;7.15;87.57
33845;BME280;20145;43.118;25.694;2023-04-30T02:08:12;99200.44;;;7.13;88.14
33845;BME280;20145;43.118;25.694;2023-04-30T02:10:38;99183.34;;;7.05;88.55
33845;BME280;20145;43.118;25.694;2023-04-30T02:13:04;99201.31;;;7.02;88.60
33845;BME280;20145;43.118;25.694;2023-04-30T02:15:29;99199.59;;;6.95;88.92
33845;BME280;20145;43.118;25.694;2023-04-30T02:17:55;99187.66;;;6.89;89.51
33845;BME280;20145;43.118;25.694;2023-04-30T02:20:20;99181.66;;;6.84;89.69
33845;BME280;20145;43.118;25.694;2023-04-30T02:22:46;99177.38;;;6.78;90.29
33845;BME280;20145;43.118;25.694;2023-04-30T02:25:12;99179.13;;;6.76;90.72
33845;BME280;20145;43.118;25.694;2023-04-30T02:27:38;99193.63;;;6.79;90.84
33845;BME280;20145;43.118;25.694;2023-04-30T02:30:05;99189.38;;;6.76;90.83
33845;BME280;20145;43.118;25.694;2023-04-30T02:32:31;99196.22;;;6.74;89.81
33845;BME280;20145;43.118;25.694;2023-04-30T02:34:56;99189.38;;;6.72;90.78
33845;BME280;20145;43.118;25.694;2023-04-30T02:37:22;99192.75;;;6.70;90.27
33845;BME280;20145;43.118;25.694;2023-04-30T02:39:48;99197.91;;;6.70;90.43
33845;BME280;20145;43.118;25.694;2023-04-30T02:42:14;99204.75;;;6.68;91.07
33845;BME280;20145;43.118;25.694;2023-04-30T02:44:40;99197.91;;;6.64;91.38
33845;BME280;20145;43.118;25.694;2023-04-30T02:47:06;99195.34;;;6.63;90.57
33845;BME280;20145;43.118;25.694;2023-04-30T02:49:31;99193.66;;;6.57;91.46
33845;BME280;20145;43.118;25.694;2023-04-30T02:51:57;99197.06;;;6.58;91.42
33845;BME280;20145;43.118;25.694;2023-04-30T02:54:23;99194.47;;;6.56;91.68
33845;BME280;20145;43.118;25.694;2023-04-30T02:56:48;99196.19;;;6.62;91.94
33845;BME280;20145;43.118;25.694;2023-04-30T02:59:14;99190.22;;;6.60;92.30
33845;BME280;20145;43.118;25.694;2023-04-30T03:01:39;99183.41;;;6.54;92.78
33845;BME280;20145;43.118;25.694;2023-04-30T03:04:06;99205.59;;;6.64;92.17
33845;BME280;20145;43.118;25.694;2023-04-30T03:06:34;99203.88;;;6.65;92.38
33845;BME280;20145;43.118;25.694;2023-04-30T03:08:59;99201.34;;;6.63;92.50
33845;BME280;20145;43.118;25.694;2023-04-30T03:11:25;99195.34;;;6.67;92.57
33845;BME280;20145;43.118;25.694;2023-04-30T03:13:51;99198.78;;;6.68;92.45
33845;BME280;20145;43.118;25.694;2023-04-30T03:16:18;99203.03;;;6.64;91.17
33845;BME280;20145;43.118;25.694;2023-04-30T03:18:46;99196.22;;;6.60;90.87
33845;BME280;20145;43.118;25.694;2023-04-30T03:21:12;99202.19;;;6.58;90.85
33845;BME280;20145;43.118;25.694;2023-04-30T03:23:37;99203.03;;;6.52;90.75
33845;BME280;20145;43.118;25.694;2023-04-30T03:26:03;99204.72;;;6.50;90.77
33845;BME280;20145;43.118;25.694;2023-04-30T03:28:29;99204.75;;;6.52;91.47
33845;BME280;20145;43.118;25.694;2023-04-30T03:30:54;99191.06;;;6.48;91.51
33845;BME280;20145;43.118;25.694;2023-04-30T03:33:20;99214.16;;;6.63;92.32
33845;BME280;20145;43.118;25.694;2023-04-30T03:35:46;99215.00;;;6.62;91.93
33845;BME280;20145;43.118;25.694;2023-04-30T03:38:11;99213.28;;;6.66;91.78
33845;BME280;20145;43.118;25.694;2023-04-30T03:40:37;99217.56;;;6.67;91.01
33845;BME280;20145;43.118;25.694;2023-04-30T03:43:03;99198.75;;;6.60;91.46
33845;BME280;20145;43.118;25.694;2023-04-30T03:45:28;99218.41;;;6.72;91.55
33845;BME280;20145;43.118;25.694;2023-04-30T03:47:54;99226.09;;;6.78;91.41
33845;BME280;20145;43.118;25.694;2023-04-30T03:50:20;99218.41;;;6.84;91.71
33845;BME280;20145;43.118;25.694;2023-04-30T03:52:46;99225.25;;;7.05;90.96
33845;BME280;20145;43.118;25.694;2023-04-30T03:55:11;99234.59;;;7.38;90.21
33845;BME280;20145;43.118;25.694;2023-04-30T03:57:38;99237.06;;;7.75;88.45
33845;BME280;20145;43.118;25.694;2023-04-30T04:00:05;99234.44;;;7.98;87.29
33845;BME280;20145;43.118;25.694;2023-04-30T04:02:35;99244.66;;;8.04;86.33
33845;BME280;20145;43.118;25.694;2023-04-30T04:05:01;99226.72;;;7.97;86.41
33845;BME280;20145;43.118;25.694;2023-04-30T04:07:27;99246.41;;;8.01;86.99
33845;BME280;20145;43.118;25.694;2023-04-30T04:09:52;99236.91;;;8.14;86.95
33845;BME280;20145;43.118;25.694;2023-04-30T04:12:18;99242.81;;;8.30;86.91
33845;BME280;20145;43.118;25.694;2023-04-30T04:14:43;99245.38;;;8.40;87.28
33845;BME280;20145;43.118;25.694;2023-04-30T04:17:09;99241.03;;;8.48;87.48
33845;BME280;20145;43.118;25.694;2023-04-30T04:19:35;99239.22;;;8.61;87.16
33845;BME280;20145;43.118;25.694;2023-04-30T04:22:00;99237.47;;;8.68;87.76
33845;BME280;20145;43.118;25.694;2023-04-30T04:24:27;99240.91;;;8.68;87.34
33845;BME280;20145;43.118;25.694;2023-04-30T04:26:52;99240.00;;;8.74;87.88
33845;BME280;20145;43.118;25.694;2023-04-30T04:29:18;99247.69;;;8.79;88.58
33845;BME280;20145;43.118;25.694;2023-04-30T04:31:43;99241.66;;;8.84;88.66
33845;BME280;20145;43.118;25.694;2023-04-30T04:34:09;99244.16;;;8.90;88.76
33845;BME280;20145;43.118;25.694;2023-04-30T04:36:35;99251.81;;;8.97;88.91
33845;BME280;20145;43.118;25.694;2023-04-30T04:39:01;99244.94;;;9.02;88.92
33845;BME280;20145;43.118;25.694;2023-04-30T04:41:33;99259.44;;;9.12;90.06
33845;BME280;20145;43.118;25.694;2023-04-30T04:44:00;99257.63;;;9.22;90.09
33845;BME280;20145;43.118;25.694;2023-04-30T04:46:26;99260.13;;;9.28;89.79
33845;BME280;20145;43.118;25.694;2023-04-30T04:48:52;99249.84;;;9.25;90.02
33845;BME280;20145;43.118;25.694;2023-04-30T04:51:18;99260.09;;;9.32;90.29
33845;BME280;20145;43.118;25.694;2023-04-30T04:53:44;99248.84;;;9.43;90.43
33845;BME280;20145;43.118;25.694;2023-04-30T04:56:09;99258.91;;;9.66;89.82
33845;BME280;20145;43.118;25.694;2023-04-30T04:58:35;99257.88;;;9.80;89.84
33845;BME280;20145;43.118;25.694;2023-04-30T05:01:01;99244.84;;;9.91;89.09
33845;BME280;20145;43.118;25.694;2023-04-30T05:03:28;99255.75;;;10.15;89.28
33845;BME280;20145;43.118;25.694;2023-04-30T05:05:53;99250.47;;;10.22;88.50
33845;BME280;20145;43.118;25.694;2023-04-30T05:08:19;99252.94;;;10.33;86.16
33845;BME280;20145;43.118;25.694;2023-04-30T05:10:45;99253.63;;;10.47;84.04
33845;BME280;20145;43.118;25.694;2023-04-30T05:13:10;99248.31;;;10.57;82.68
33845;BME280;20145;43.118;25.694;2023-04-30T05:15:36;99254.19;;;10.68;82.39
33845;BME280;20145;43.118;25.694;2023-04-30T05:18:02;99259.22;;;10.76;81.07
33845;BME280;20145;43.118;25.694;2023-04-30T05:20:27;99262.56;;;10.84;81.80
33845;BME280;20145;43.118;25.694;2023-04-30T05:22:53;99265.97;;;10.84;81.55
33845;BME280;20145;43.118;25.694;2023-04-30T05:25:19;99262.56;;;10.84;81.14
33845;BME280;20145;43.118;25.694;2023-04-30T05:27:44;99271.88;;;10.92;81.03
33845;BME280;20145;43.118;25.694;2023-04-30T05:30:10;99272.13;;;10.76;80.94
33845;BME280;20145;43.118;25.694;2023-04-30T05:32:36;99280.13;;;10.59;80.98
33845;BME280;20145;43.118;25.694;2023-04-30T05:35:02;99278.50;;;10.52;81.43
33845;BME280;20145;43.118;25.694;2023-04-30T05:37:28;99238.41;;;10.27;80.93
33845;BME280;20145;43.118;25.694;2023-04-30T05:39:53;99280.13;;;10.56;80.82
33845;BME280;20145;43.118;25.694;2023-04-30T05:42:19;99280.88;;;10.67;80.07
33845;BME280;20145;43.118;25.694;2023-04-30T05:44:45;99278.81;;;10.87;79.54
33845;BME280;20145;43.118;25.694;2023-04-30T05:47:10;99279.34;;;11.08;78.47
33845;BME280;20145;43.118;25.694;2023-04-30T05:49:36;99274.63;;;11.33;78.60
33845;BME280;20145;43.118;25.694;2023-04-30T05:52:02;99276.78;;;11.59;77.62
33845;BME280;20145;43.118;25.694;2023-04-30T05:54:29;99281.28;;;11.94;76.80
33845;BME280;20145;43.118;25.694;2023-04-30T05:56:54;99276.31;;;12.27;74.74
33845;BME280;20145;43.118;25.694;2023-04-30T05:59:20;99271.25;;;12.61;73.43
33845;BME280;20145;43.118;25.694;2023-04-30T06:01:45;99268.22;;;12.81;71.63
33845;BME280;20145;43.118;25.694;2023-04-30T06:04:11;99279.25;;;12.89;70.76
33845;BME280;20145;43.118;25.694;2023-04-30T06:06:37;99275.53;;;13.00;71.24
33845;BME280;20145;43.118;25.694;2023-04-30T06:09:02;99270.81;;;13.17;69.84
33845;BME280;20145;43.118;25.694;2023-04-30T06:11:29;99275.63;;;13.32;68.40
33845;BME280;20145;43.118;25.694;2023-04-30T06:13:54;99277.38;;;13.32;70.09
33845;BME280;20145;43.118;25.694;2023-04-30T06:16:20;99276.09;;;13.47;69.67
33845;BME280;20145;43.118;25.694;2023-04-30T06:18:46;99279.91;;;13.66;68.83
33845;BME280;20145;43.118;25.694;2023-04-30T06:21:11;99282.88;;;13.85;69.04
33845;BME280;20145;43.118;25.694;2023-04-30T06:23:37;99285.34;;;13.90;69.99
33845;BME280;20145;43.118;25.694;2023-04-30T06:26:02;99286.34;;;13.86;68.66
33845;BME280;20145;43.118;25.694;2023-04-30T06:28:28;99285.19;;;13.63;68.28
33845;BME280;20145;43.118;25.694;2023-04-30T06:30:54;99290.81;;;13.46;68.26
33845;BME280;20145;43.118;25.694;2023-04-30T06:33:20;99267.84;;;13.32;69.72
33845;BME280;20145;43.118;25.694;2023-04-30T06:35:46;99277.38;;;13.65;68.38
33845;BME280;20145;43.118;25.694;2023-04-30T06:38:12;99289.72;;;13.88;67.80
33845;BME280;20145;43.118;25.694;2023-04-30T06:40:38;99294.88;;;14.19;67.29
33845;BME280;20145;43.118;25.694;2023-04-30T06:43:04;99283.84;;;14.42;68.12
33845;BME280;20145;43.118;25.694;2023-04-30T06:45:29;99292.22;;;14.53;68.14
33845;BME280;20145;43.118;25.694;2023-04-30T06:47:55;99290.88;;;14.68;67.11
33845;BME280;20145;43.118;25.694;2023-04-30T06:50:21;99286.06;;;14.84;66.00
33845;BME280;20145;43.118;25.694;2023-04-30T06:52:47;99292.34;;;15.05;66.64
33845;BME280;20145;43.118;25.694;2023-04-30T06:55:13;99291.81;;;15.20;64.90
33845;BME280;20145;43.118;25.694;2023-04-30T06:57:39;99297.28;;;15.39;63.81
33845;BME280;20145;43.118;25.694;2023-04-30T07:00:05;99294.22;;;15.53;62.47
33845;BME280;20145;43.118;25.694;2023-04-30T07:02:31;99303.00;;;15.49;61.86
33845;BME280;20145;43.118;25.694;2023-04-30T07:04:57;99298.97;;;15.65;62.05
33845;BME280;20145;43.118;25.694;2023-04-30T07:07:22;99303.44;;;15.61;62.95
33845;BME280;20145;43.118;25.694;2023-04-30T07:09:48;99303.84;;;15.76;63.08
33845;BME280;20145;43.118;25.694;2023-04-30T07:12:14;99300.06;;;15.84;62.94
33845;BME280;20145;43.118;25.694;2023-04-30T07:14:40;99302.25;;;15.97;62.52
33845;BME280;20145;43.118;25.694;2023-04-30T07:17:05;99308.22;;;15.99;63.28
33845;BME280;20145;43.118;25.694;2023-04-30T07:19:31;99309.66;;;16.08;61.86
33845;BME280;20145;43.118;25.694;2023-04-30T07:21:57;99304.84;;;15.97;59.14
33845;BME280;20145;43.118;25.694;2023-04-30T07:24:22;99305.56;;;16.00;58.96
33845;BME280;20145;43.118;25.694;2023-04-30T07:26:48;99302.59;;;16.11;58.80
33845;BME280;20145;43.118;25.694;2023-04-30T07:29:14;99312.63;;;16.22;56.91
33845;BME280;20145;43.118;25.694;2023-04-30T07:31:39;99308.03;;;16.28;56.73
33845;BME280;20145;43.118;25.694;2023-04-30T07:34:05;99304.78;;;16.45;57.14
33845;BME280;20145;43.118;25.694;2023-04-30T07:36:30;99302.19;;;16.67;56.55
33845;BME280;20145;43.118;25.694;2023-04-30T07:38:56;99301.69;;;16.81;55.81
33845;BME280;20145;43.118;25.694;2023-04-30T07:41:23;99298.03;;;16.63;55.77
33845;BME280;20145;43.118;25.694;2023-04-30T07:43:49;99302.41;;;16.63;56.43
33845;BME280;20145;43.118;25.694;2023-04-30T07:46:14;99273.16;;;16.78;56.23
33845;BME280;20145;43.118;25.694;2023-04-30T07:48:40;99295.66;;;16.81;53.93
33845;BME280;20145;43.118;25.694;2023-04-30T07:51:06;99297.19;;;16.63;52.26
33845;BME280;20145;43.118;25.694;2023-04-30T07:53:33;99296.56;;;16.80;52.92
33845;BME280;20145;43.118;25.694;2023-04-30T07:55:58;99299.88;;;16.83;52.58
33845;BME280;20145;43.118;25.694;2023-04-30T07:58:24;99289.16;;;16.91;51.72
33845;BME280;20145;43.118;25.694;2023-04-30T08:00:50;99293.03;;;17.03;49.73
33845;BME280;20145;43.118;25.694;2023-04-30T08:03:15;99286.34;;;17.17;51.03
33845;BME280;20145;43.118;25.694;2023-04-30T08:05:41;99287.22;;;17.38;50.31
33845;BME280;20145;43.118;25.694;2023-04-30T08:08:07;99284.47;;;17.62;49.27
33845;BME280;20145;43.118;25.694;2023-04-30T08:10:33;99295.09;;;17.79;47.25
33845;BME280;20145;43.118;25.694;2023-04-30T08:12:59;99291.00;;;17.93;48.89
33845;BME280;20145;43.118;25.694;2023-04-30T08:15:25;99276.41;;;17.89;46.31
33845;BME280;20145;43.118;25.694;2023-04-30T08:17:51;99286.44;;;17.77;46.04
33845;BME280;20145;43.118;25.694;2023-04-30T08:20:17;99290.81;;;17.77;44.80
33845;BME280;20145;43.118;25.694;2023-04-30T08:22:43;99289.22;;;17.73;44.35
33845;BME280;20145;43.118;25.694;2023-04-30T08:25:12;99286.72;;;17.71;43.05
33845;BME280;20145;43.118;25.694;2023-04-30T08:27:38;99284.81;;;17.75;45.59
33845;BME280;20145;43.118;25.694;2023-04-30T08:30:05;99289.00;;;17.79;48.41
33845;BME280;20145;43.118;25.694;2023-04-30T08:32:33;99287.81;;;17.86;46.08
33845;BME280;20145;43.118;25.694;2023-04-30T08:35:00;99295.00;;;18.01;45.54
33845;BME280;20145;43.118;25.694;2023-04-30T08:37:25;99291.75;;;18.15;44.63
33845;BME280;20145;43.118;25.694;2023-04-30T08:39:51;99292.38;;;18.20;43.93
33845;BME280;20145;43.118;25.694;2023-04-30T08:42:17;99282.66;;;18.24;44.72
33845;BME280;20145;43.118;25.694;2023-04-30T08:44:45;99284.66;;;18.38;45.83
33845;BME280;20145;43.118;25.694;2023-04-30T08:47:12;99285.28;;;18.24;45.32
33845;BME280;20145;43.118;25.694;2023-04-30T08:49:40;99293.88;;;18.26;44.54
33845;BME280;20145;43.118;25.694;2023-04-30T08:52:06;99294.09;;;18.40;44.27
33845;BME280;20145;43.118;25.694;2023-04-30T08:54:34;99284.34;;;18.44;44.55
33845;BME280;20145;43.118;25.694;2023-04-30T08:57:00;99284.91;;;18.32;45.53
33845;BME280;20145;43.118;25.694;2023-04-30T08:59:27;99279.91;;;18.46;45.43
33845;BME280;20145;43.118;25.694;2023-04-30T09:01:52;99269.22;;;18.50;45.69
33845;BME280;20145;43.118;25.694;2023-04-30T09:04:18;99278.34;;;18.61;43.73
33845;BME280;20145;43.118;25.694;2023-04-30T09:06:43;99275.72;;;18.42;44.68
33845;BME280;20145;43.118;25.694;2023-04-30T09:09:11;99264.50;;;18.40;45.28
33845;BME280;20145;43.118;25.694;2023-04-30T09:11:37;99266.84;;;18.46;45.14
33845;BME280;20145;43.118;25.694;2023-04-30T09:14:04;99275.03;;;18.57;44.95
33845;BME280;20145;43.118;25.694;2023-04-30T09:16:44;99247.81;;;18.61;44.63
33845;BME280;20145;43.118;25.694;2023-04-30T09:19:22;99268.66;;;18.82;44.04
33845;BME280;20145;43.118;25.694;2023-04-30T09:21:48;99267.06;;;18.79;42.70
33845;BME280;20145;43.118;25.694;2023-04-30T09:24:13;99254.56;;;18.84;43.32
33845;BME280;20145;43.118;25.694;2023-04-30T09:26:40;99264.59;;;18.93;42.49
33845;BME280;20145;43.118;25.694;2023-04-30T09:29:05;99257.09;;;19.05;43.85
33845;BME280;20145;43.118;25.694;2023-04-30T09:31:35;99262.41;;;19.21;42.98
33845;BME280;20145;43.118;25.694;2023-04-30T09:34:01;99251.38;;;19.14;42.80
33845;BME280;20145;43.118;25.694;2023-04-30T09:36:27;99244.91;;;19.04;44.03
33845;BME280;20145;43.118;25.694;2023-04-30T09:38:53;99252.06;;;19.17;44.63
33845;BME280;20145;43.118;25.694;2023-04-30T09:41:26;99240.94;;;19.49;44.08
33845;BME280;20145;43.118;25.694;2023-04-30T09:43:53;99245.16;;;19.69;42.20
33845;BME280;20145;43.118;25.694;2023-04-30T09:46:19;99249.66;;;19.82;42.57
33845;BME280;20145;43.118;25.694;2023-04-30T09:48:46;99239.06;;;20.01;41.69
33845;BME280;20145;43.118;25.694;2023-04-30T09:51:13;99240.00;;;20.16;42.93
33845;BME280;20145;43.118;25.694;2023-04-30T09:53:42;99242.19;;;20.08;42.27
33845;BME280;20145;43.118;25.694;2023-04-30T09:56:11;99238.50;;;20.12;41.16
33845;BME280;20145;43.118;25.694;2023-04-30T09:58:37;99231.50;;;20.28;42.99
33845;BME280;20145;43.118;25.694;2023-04-30T10:01:07;99238.66;;;20.25;42.21
33845;BME280;20145;43.118;25.694;2023-04-30T10:03:39;99240.63;;;20.37;43.26
33845;BME280;20145;43.118;25.694;2023-04-30T10:06:07;99233.78;;;20.35;42.14
33845;BME280;20145;43.118;25.694;2023-04-30T10:08:42;99227.06;;;20.45;42.13
33845;BME280;20145;43.118;25.694;2023-04-30T10:11:13;99232.31;;;20.45;42.86
33845;BME280;20145;43.118;25.694;2023-04-30T10:14:02;99227.84;;;20.47;43.66
33845;BME280;20145;43.118;25.694;2023-04-30T10:16:42;99220.91;;;20.30;43.54
33845;BME280;20145;43.118;25.694;2023-04-30T10:19:13;99221.34;;;20.07;44.60
33845;BME280;20145;43.118;25.694;2023-04-30T10:21:41;99232.72;;;20.05;45.30
33845;BME280;20145;43.118;25.694;2023-04-30T10:24:12;99227.25;;;20.10;45.45
33845;BME280;20145;43.118;25.694;2023-04-30T10:26:39;99231.97;;;20.19;45.55
33845;BME280;20145;43.118;25.694;2023-04-30T10:29:06;99217.22;;;20.34;47.56
33845;BME280;20145;43.118;25.694;2023-04-30T10:31:31;99217.09;;;20.36;43.06
33845;BME280;20145;43.118;25.694;2023-04-30T10:36:46;99229.19;;;20.38;43.27
33845;BME280;20145;43.118;25.694;2023-04-30T10:39:21;99218.66;;;20.40;42.60
33845;BME280;20145;43.118;25.694;2023-04-30T10:41:48;99210.50;;;20.44;41.74
33845;BME280;20145;43.118;25.694;2023-04-30T10:44:14;99222.53;;;20.33;42.63
33845;BME280;20145;43.118;25.694;2023-04-30T10:46:41;99210.94;;;20.21;40.71
33845;BME280;20145;43.118;25.694;2023-04-30T10:49:07;99198.88;;;20.34;42.11
33845;BME280;20145;43.118;25.694;2023-04-30T10:51:50;99201.44;;;20.50;42.24
33845;BME280;20145;43.118;25.694;2023-04-30T10:54:23;99193.16;;;20.42;43.02
33845;BME280;20145;43.118;25.694;2023-04-30T10:56:50;99204.00;;;20.52;42.74
33845;BME280;20145;43.118;25.694;2023-04-30T10:59:16;99192.84;;;20.32;40.68
33845;BME280;20145;43.118;25.694;2023-04-30T11:01:58;99199.00;;;20.31;40.26
33845;BME280;20145;43.118;25.694;2023-04-30T11:04:25;99196.91;;;20.38;42.71
33845;BME280;20145;43.118;25.694;2023-04-30T11:07:00;99191.97;;;20.47;40.37
33845;BME280;20145;43.118;25.694;2023-04-30T11:09:43;99196.50;;;20.45;39.43
33845;BME280;20145;43.118;25.694;2023-04-30T11:12:19;99187.94;;;20.42;41.44
33845;BME280;20145;43.118;25.694;2023-04-30T11:15:06;99174.81;;;20.42;41.83
33845;BME280;20145;43.118;25.694;2023-04-30T11:17:32;99193.97;;;20.60;42.30
33845;BME280;20145;43.118;25.694;2023-04-30T11:19:59;99187.94;;;20.58;42.13
33845;BME280;20145;43.118;25.694;2023-04-30T11:22:26;99193.25;;;20.56;43.29
33845;BME280;20145;43.118;25.694;2023-04-30T11:25:02;99159.44;;;20.52;42.86
33845;BME280;20145;43.118;25.694;2023-04-30T11:27:31;99188.34;;;20.50;43.32
33845;BME280;20145;43.118;25.694;2023-04-30T11:29:57;99182.38;;;20.48;44.29
33845;BME280;20145;43.118;25.694;2023-04-30T11:32:26;99179.84;;;20.62;43.22
33845;BME280;20145;43.118;25.694;2023-04-30T11:34:56;99177.38;;;20.59;41.56
33845;BME280;20145;43.118;25.694;2023-04-30T11:37:41;99171.19;;;20.44;40.17
33845;BME280;20145;43.118;25.694;2023-04-30T11:40:11;99164.53;;;20.55;41.20
33845;BME280;20145;43.118;25.694;2023-04-30T11:42:39;99164.09;;;20.62;40.32
33845;BME280;20145;43.118;25.694;2023-04-30T11:45:06;99181.75;;;20.59;40.24
33845;BME280;20145;43.118;25.694;2023-04-30T11:47:49;99176.44;;;20.60;38.77
33845;BME280;20145;43.118;25.694;2023-04-30T11:50:16;99169.34;;;20.62;39.63
33845;BME280;20145;43.118;25.694;2023-04-30T11:52:48;99163.50;;;20.73;39.85
33845;BME280;20145;43.118;25.694;2023-04-30T11:55:19;99155.69;;;20.71;39.98
33845;BME280;20145;43.118;25.694;2023-04-30T11:57:49;99167.63;;;20.61;42.15
33845;BME280;20145;43.118;25.694;2023-04-30T12:00:20;99148.13;;;20.51;42.75
33845;BME280;20145;43.118;25.694;2023-04-30T12:02:47;99159.13;;;20.58;42.87
33845;BME280;20145;43.118;25.694;2023-04-30T12:05:17;99159.38;;;20.53;42.09
33845;BME280;20145;43.118;25.694;2023-04-30T12:10:15;99156.88;;;20.50;41.96
33845;BME280;20145;43.118;25.694;2023-04-30T12:12:43;99157.84;;;20.49;41.05
33845;BME280;20145;43.118;25.694;2023-04-30T12:15:13;99139.25;;;20.38;40.31
33845;BME280;20145;43.118;25.694;2023-04-30T12:17:40;99146.34;;;20.52;39.59
33845;BME280;20145;43.118;25.694;2023-04-30T12:20:07;99146.78;;;20.60;40.23
33845;BME280;20145;43.118;25.694;2023-04-30T12:22:33;99146.59;;;20.63;38.14
33845;BME280;20145;43.118;25.694;2023-04-30T12:25:05;99151.59;;;20.67;39.48
33845;BME280;20145;43.118;25.694;2023-04-30T12:27:32;99140.50;;;20.62;39.13
33845;BME280;20145;43.118;25.694;2023-04-30T12:30:09;99135.09;;;20.65;40.05
33845;BME280;20145;43.118;25.694;2023-04-30T12:32:42;99132.94;;;20.72;40.35
33845;BME280;20145;43.118;25.694;2023-04-30T12:35:15;99130.47;;;20.85;40.41
33845;BME280;20145;43.118;25.694;2023-04-30T12:37:45;99135.91;;;20.96;41.52
33845;BME280;20145;43.118;25.694;2023-04-30T12:40:13;99141.06;;;20.98;41.10
33845;BME280;20145;43.118;25.694;2023-04-30T12:42:42;99133.47;;;20.93;42.06
33845;BME280;20145;43.118;25.694;2023-04-30T12:45:09;99128.69;;;21.00;43.38
33845;BME280;20145;43.118;25.694;2023-04-30T12:47:40;99139.56;;;20.93;40.83
33845;BME280;20145;43.118;25.694;2023-04-30T12:50:10;99126.59;;;20.76;41.50
33845;BME280;20145;43.118;25.694;2023-04-30T12:52:37;99115.78;;;20.66;41.10
33845;BME280;20145;43.118;25.694;2023-04-30T12:55:18;99118.44;;;20.81;40.69
33845;BME280;20145;43.118;25.694;2023-04-30T12:58:07;99114.44;;;20.89;41.15
33845;BME280;20145;43.118;25.694;2023-04-30T13:00:49;99117.28;;;21.01;42.04
33845;BME280;20145;43.118;25.694;2023-04-30T13:03:17;99114.00;;;21.11;41.21
33845;BME280;20145;43.118;25.694;2023-04-30T13:05:47;99097.88;;;21.03;39.40
33845;BME280;20145;43.118;25.694;2023-04-30T13:08:13;99104.63;;;21.22;40.45
33845;BME280;20145;43.118;25.694;2023-04-30T13:10:39;99098.94;;;21.44;40.69
33845;BME280;20145;43.118;25.694;2023-04-30T13:13:05;99100.06;;;21.68;39.94
33845;BME280;20145;43.118;25.694;2023-04-30T13:15:31;99100.63;;;21.73;38.98
33845;BME280;20145;43.118;25.694;2023-04-30T13:17:56;99091.91;;;21.58;38.25